Аэропорт: Актобе. Актобе

ICAO: UATT

METAR:
2019-11-21 01:30:00
UATT 210130Z 35002MPS 9999 SCT014 M20/M23 Q1044 R31/910255 NOSIG RMK QFE762/1017
METAR:
2019-11-20 23:00:00
TAF UATT 202300Z 2100/2124 05003MPS 9999 SCT033 TXM09/2112Z TNM22/2103Z TEMPO 2100/2106 3100 BR BKN011